EDT,Max TemperatureF,Mean TemperatureF,Min TemperatureF,Max Dew PointF,MeanDew PointF,Min DewpointF,Max Humidity, Mean Humidity, Min Humidity, Max Sea Level PressureIn, Mean Sea Level PressureIn, Min Sea Level PressureIn, Max VisibilityMiles, Mean VisibilityMiles, Min VisibilityMiles, Max Wind SpeedMPH, Mean Wind SpeedMPH, Max Gust SpeedMPH,PrecipitationIn, CloudCover, Events, WindDirDegrees
2012-10-1,68,54,40,48,43,37,93,68,42,29.96,29.91,29.82,10,8,2,8,1,13,0.00,0,,267
2012-10-2,75,61,47,53,46,42,80,57,33,29.92,29.87,29.83,10,10,10,13,4,20,0.00,2,,56
2012-10-3,63,60,56,58,56,49,90,75,60,30.01,29.97,29.92,10,8,2,13,4,16,0.20,8,Rain,134
2012-10-4,78,69,59,60,57,47,97,69,41,30.05,30.03,29.96,10,8,4,24,8,32,0.26,6,Rain,223
2012-10-5,60,55,50,45,38,32,66,56,46,30.10,30.04,29.94,10,10,10,16,10,22,0.00,6,,269
2012-10-6,51,48,45,38,33,30,76,62,48,30.15,30.05,29.92,10,10,10,17,8,25,0.02,8,Rain,297
2012-10-7,48,40,32,39,34,25,82,64,45,30.16,30.14,30.11,10,10,10,10,2,23,0.03,7,Rain,333
2012-10-8,57,47,36,33,30,28,82,59,35,30.17,30.12,29.99,10,10,10,23,7,30,0.00,3,,180
2012-10-9,65,55,45,46,38,30,86,62,37,30.03,29.90,29.80,10,10,8,28,14,39,0.29,3,Rain,202
2012-10-10,49,46,43,43,33,25,89,64,39,30.16,29.97,29.80,10,10,6,18,7,28,0.30,8,Rain,279
2012-10-11,62,50,37,43,36,28,86,65,43,30.19,30.10,29.99,10,10,10,35,11,47,0.20,3,Rain,220
2012-10-12,53,43,33,40,31,25,83,59,35,30.47,30.37,30.21,10,10,10,13,2,16,0.01,1,Rain,45
2012-10-13,67,50,32,61,45,26,93,80,67,30.34,30.02,29.79,10,8,2,24,8,31,0.70,6,Rain,161
2012-10-14,71,61,51,63,58,46,93,80,66,29.80,29.60,29.43,10,9,2,30,14,41,1.11,7,Rain-Thunderstorm,220
2012-10-15,51,44,36,46,40,35,92,77,61,29.99,29.83,29.64,10,10,10,16,10,24,0.01,7,Rain,305
2012-10-16,64,49,34,43,39,31,92,68,44,29.99,29.84,29.58,10,10,10,18,6,25,T,1,,147
2012-10-17,72,65,57,56,51,44,84,64,44,29.60,29.53,29.40,10,10,9,28,13,38,0.16,4,Rain,171
2012-10-18,61,53,45,55,46,38,93,72,51,29.58,29.41,29.29,10,9,5,29,14,37,0.79,8,Rain,206
2012-10-19,53,49,45,45,43,40,89,79,68,29.57,29.53,29.49,10,10,10,16,9,21,0.12,7,Rain,159
2012-10-20,56,47,38,46,42,36,93,80,66,29.92,29.77,29.58,10,9,1,14,3,21,0.06,6,Rain,292
2012-10-21,64,51,37,47,39,35,92,69,46,30.09,30.00,29.91,10,7,1,13,2,16,0.00,1,,160
2012-10-22,69,59,48,61,54,44,90,75,59,30.03,29.97,29.90,10,8,2,20,5,25,2.11,5,Rain-Thunderstorm,139
2012-10-23,65,63,60,61,59,57,93,89,84,29.98,29.94,29.89,10,6,0,13,5,17,0.43,8,Fog-Rain-Thunderstorm,162
2012-10-24,79,69,59,64,60,56,90,74,58,29.98,29.94,29.90,10,10,7,14,6,18,0.00,4,,166
2012-10-25,80,65,49,60,56,45,89,69,49,29.94,29.83,29.72,10,9,3,28,12,40,0.50,4,Rain-Thunderstorm,205
2012-10-26,50,46,41,45,35,30,86,66,46,30.32,30.18,29.96,10,10,6,20,11,26,0.05,4,Rain,322
2012-10-27,53,44,34,35,31,29,82,62,42,30.31,30.28,30.23,10,10,10,15,4,21,0.00,1,,353
2012-10-28,52,44,36,29,27,22,75,54,32,30.31,30.27,30.23,10,10,10,15,7,22,0.00,1,,19
2012-10-29,50,44,37,29,25,21,70,51,32,30.25,30.17,29.97,10,10,10,18,7,30,0.00,0,,353
2012-10-30,44,42,40,36,31,20,85,61,37,29.93,29.74,29.68,10,10,10,21,13,33,0.18,7,Rain,338
2012-10-31,45,43,40,37,35,33,85,75,65,29.78,29.71,29.67,10,10,8,21,11,32,0.06,8,Rain,324